createdAt,value
2023-05-05T00:01:25.837Z,101175.47
2023-05-05T00:03:52.645Z,101166.84
2023-05-05T00:06:19.798Z,101202.25
2023-05-05T00:08:47.039Z,101168.78
2023-05-05T00:11:13.746Z,101193.53
2023-05-05T00:13:40.402Z,101180.72
2023-05-05T00:16:07.436Z,101183.69
2023-05-05T00:18:34.256Z,101180.91
2023-05-05T00:21:01.080Z,101186.22
2023-05-05T00:23:27.926Z,101175.38
2023-05-05T00:25:54.674Z,101125.53
2023-05-05T00:28:22.029Z,101162.44
2023-05-05T00:30:48.935Z,101136.69
2023-05-05T00:33:15.843Z,101112.38
2023-05-05T00:35:42.596Z,101137.06
2023-05-05T00:38:09.574Z,101121.72
2023-05-05T00:40:37.352Z,101100.22
2023-05-05T00:43:04.242Z,101125.06
2023-05-05T00:45:31.176Z,101139.66
2023-05-05T00:47:59.529Z,101151.25
2023-05-05T00:50:29.197Z,101151.50
2023-05-05T00:53:04.457Z,101149.66
2023-05-05T00:55:32.324Z,101115.41
2023-05-05T00:58:00.468Z,101143.88
2023-05-05T01:00:28.510Z,101102.81
2023-05-05T01:02:55.465Z,101101.50
2023-05-05T01:05:23.714Z,101074.38
2023-05-05T01:08:30.609Z,101110.22
2023-05-05T01:11:12.139Z,101089.28
2023-05-05T01:14:14.671Z,101107.25
2023-05-05T01:16:53.721Z,101086.94
2023-05-05T01:19:42.341Z,101100.41
2023-05-05T01:22:12.970Z,101086.19
2023-05-05T01:24:52.371Z,101084.03
2023-05-05T01:27:45.531Z,101082.06
2023-05-05T01:30:24.509Z,101080.47
2023-05-05T01:32:55.423Z,101044.59
2023-05-05T01:35:38.093Z,101076.19
2023-05-05T01:38:22.569Z,101073.75
2023-05-05T01:40:59.945Z,101042.84
2023-05-05T01:43:30.843Z,101055.47
2023-05-05T01:45:59.422Z,101050.22
2023-05-05T01:48:26.529Z,101024.09
2023-05-05T01:50:54.265Z,101055.78
2023-05-05T01:53:23.449Z,101065.31
2023-05-05T01:55:51.242Z,101042.03
2023-05-05T01:58:18.912Z,101035.09
2023-05-05T02:00:47.176Z,101048.47
2023-05-05T02:03:15.948Z,101038.25
2023-05-05T02:05:44.649Z,101040.00
2023-05-05T02:08:12.281Z,101011.75
2023-05-05T02:10:42.978Z,101009.38
2023-05-05T02:13:12.710Z,101019.19
2023-05-05T02:15:40.710Z,100990.22
2023-05-05T02:18:07.818Z,101012.66
2023-05-05T02:20:37.521Z,101007.41
2023-05-05T02:23:06.481Z,101033.88
2023-05-05T02:25:40.412Z,101006.38
2023-05-05T02:28:15.545Z,100999.13
2023-05-05T02:30:43.944Z,101004.66
2023-05-05T02:33:14.855Z,101004.69
2023-05-05T02:35:43.179Z,100999.72
2023-05-05T02:38:17.396Z,100995.03
2023-05-05T02:40:46.774Z,100984.81
2023-05-05T02:43:18.230Z,100933.22
2023-05-05T02:45:45.227Z,100975.56
2023-05-05T02:48:13.180Z,100996.16
2023-05-05T02:50:40.001Z,100965.13
2023-05-05T02:53:07.066Z,100940.91
2023-05-05T02:55:48.194Z,100952.66
2023-05-05T02:58:21.832Z,100977.38
2023-05-05T03:01:16.273Z,100982.88
2023-05-05T03:04:08.765Z,100977.59
2023-05-05T03:06:41.084Z,100980.31
2023-05-05T03:09:19.261Z,100987.72
2023-05-05T03:11:57.891Z,100982.38
2023-05-05T03:14:27.287Z,100954.19
2023-05-05T03:16:56.810Z,100985.88
2023-05-05T03:19:24.797Z,100988.81
2023-05-05T03:21:52.624Z,100987.91
2023-05-05T03:24:20.572Z,100986.94
2023-05-05T03:26:48.957Z,100966.03
2023-05-05T03:29:16.267Z,100971.91
2023-05-05T03:31:43.110Z,100977.63
2023-05-05T03:34:10.043Z,100942.25
2023-05-05T03:36:37.004Z,100966.03
2023-05-05T03:39:03.812Z,100908.06
2023-05-05T03:41:30.549Z,100922.84
2023-05-05T03:43:57.228Z,100897.06
2023-05-05T03:46:23.891Z,100942.19
2023-05-05T03:48:51.636Z,100920.75
2023-05-05T03:51:18.531Z,100922.03
2023-05-05T03:53:45.189Z,100928.53
2023-05-05T03:56:12.007Z,100874.13
2023-05-05T03:58:38.674Z,100898.44
2023-05-05T04:01:05.356Z,100926.78
2023-05-05T04:03:32.629Z,100935.97
2023-05-05T04:05:59.927Z,100912.59
2023-05-05T04:08:26.687Z,100892.63
2023-05-05T04:10:53.452Z,100900.03
2023-05-05T04:13:20.318Z,100894.63
2023-05-05T04:15:47.309Z,100912.09
2023-05-05T04:18:14.227Z,100904.81
2023-05-05T04:20:41.181Z,100916.25
2023-05-05T04:23:07.885Z,100901.97
2023-05-05T04:25:34.620Z,100918.06
2023-05-05T04:28:01.684Z,100907.53
2023-05-05T04:30:28.571Z,100892.72
2023-05-05T04:32:55.557Z,100909.84
2023-05-05T04:35:22.617Z,100911.34
2023-05-05T04:37:49.464Z,100924.22
2023-05-05T04:40:16.286Z,100902.50
2023-05-05T04:42:43.011Z,100893.84
2023-05-05T04:45:10.313Z,100897.19
2023-05-05T04:47:39.257Z,100878.09
2023-05-05T04:50:07.402Z,100915.66
2023-05-05T04:52:34.362Z,100890.25
2023-05-05T04:55:01.347Z,100922.47
2023-05-05T04:57:29.609Z,100900.63
2023-05-05T04:59:56.403Z,100891.09
2023-05-05T05:02:23.396Z,100899.25
2023-05-05T05:04:50.190Z,100899.59
2023-05-05T05:07:16.856Z,100840.31
2023-05-05T05:09:43.657Z,100874.53
2023-05-05T05:12:10.555Z,100866.81
2023-05-05T05:14:40.455Z,100846.47
2023-05-05T05:17:07.259Z,100910.28
2023-05-05T05:19:33.962Z,100848.66
2023-05-05T05:22:00.738Z,100828.47
2023-05-05T05:24:27.891Z,100885.75
2023-05-05T05:26:54.602Z,100842.53
2023-05-05T05:29:21.338Z,100884.63
2023-05-05T05:31:48.179Z,100893.47
2023-05-05T05:34:15.021Z,100887.19
2023-05-05T05:36:41.743Z,100864.50
2023-05-05T05:39:17.412Z,100854.84
2023-05-05T05:41:44.140Z,100858.94
2023-05-05T05:44:11.012Z,100818.69
2023-05-05T05:46:37.953Z,100825.34
2023-05-05T05:49:04.715Z,100851.53
2023-05-05T05:51:31.685Z,100839.84
2023-05-05T05:53:58.983Z,100824.81
2023-05-05T05:56:25.731Z,100836.72
2023-05-05T05:58:52.791Z,100853.66
2023-05-05T06:01:19.703Z,100860.09
2023-05-05T06:03:46.904Z,100873.88
2023-05-05T06:06:13.729Z,100882.19
2023-05-05T06:08:40.542Z,100837.38
2023-05-05T06:11:07.286Z,100840.16
2023-05-05T06:13:34.337Z,100829.16
2023-05-05T06:16:01.355Z,100844.56
2023-05-05T06:18:28.185Z,100849.88
2023-05-05T06:20:54.959Z,100847.09
2023-05-05T06:23:22.210Z,100815.28
2023-05-05T06:25:48.993Z,100818.44
2023-05-05T06:28:16.328Z,100835.97
2023-05-05T06:30:43.144Z,100806.19
2023-05-05T06:33:09.896Z,100827.03
2023-05-05T06:35:36.623Z,100856.13
2023-05-05T06:38:03.351Z,100814.44
2023-05-05T06:40:30.086Z,100820.22
2023-05-05T06:42:57.096Z,100856.56
2023-05-05T06:45:23.827Z,100815.22
2023-05-05T06:47:50.559Z,100852.00
2023-05-05T06:50:17.245Z,100803.16
2023-05-05T06:52:44.058Z,100819.38
2023-05-05T06:55:10.761Z,100826.25
2023-05-05T06:57:37.407Z,100847.94
2023-05-05T07:00:06.063Z,100842.63
2023-05-05T07:02:33.823Z,100821.88
2023-05-05T07:05:00.588Z,100835.69
2023-05-05T07:07:27.321Z,100852.44
2023-05-05T07:09:53.956Z,100833.88
2023-05-05T07:12:20.694Z,100852.97
2023-05-05T07:14:47.652Z,100846.16
2023-05-05T07:17:14.456Z,100842.63
2023-05-05T07:19:41.329Z,100858.28
2023-05-05T07:22:08.062Z,100840.44
2023-05-05T07:24:34.790Z,100844.69
2023-05-05T07:27:01.822Z,100857.63
2023-05-05T07:29:28.790Z,100846.13
2023-05-05T07:31:55.652Z,100874.84
2023-05-05T07:34:22.397Z,100877.44
2023-05-05T07:36:49.110Z,100834.03
2023-05-05T07:39:15.951Z,100877.41
2023-05-05T07:41:43.468Z,100875.84
2023-05-05T07:44:10.481Z,100844.75
2023-05-05T07:46:37.382Z,100865.13
2023-05-05T07:49:04.191Z,100855.78
2023-05-05T07:51:33.282Z,100840.72
2023-05-05T07:54:01.234Z,100835.91
2023-05-05T07:56:27.988Z,100809.59
2023-05-05T07:58:55.369Z,100856.81
2023-05-05T08:01:22.348Z,100853.72
2023-05-05T08:03:49.114Z,100821.91
2023-05-05T08:06:22.384Z,100836.16
2023-05-05T08:08:49.670Z,100822.28
2023-05-05T08:11:17.117Z,100875.09
2023-05-05T08:13:44.283Z,100820.72
2023-05-05T08:16:11.332Z,100827.78
2023-05-05T08:18:38.629Z,100791.88
2023-05-05T08:21:06.435Z,100816.25
2023-05-05T08:23:34.420Z,100828.63
2023-05-05T08:26:02.350Z,100833.44
2023-05-05T08:28:30.166Z,100835.03
2023-05-05T08:30:56.811Z,100793.72
2023-05-05T08:33:23.474Z,100825.97
2023-05-05T08:35:50.256Z,100851.56
2023-05-05T08:38:19.162Z,100861.75
2023-05-05T08:40:46.015Z,100814.44
2023-05-05T08:43:12.891Z,100858.22
2023-05-05T08:45:43.016Z,100819.00
2023-05-05T08:48:10.721Z,100839.69
2023-05-05T08:50:39.643Z,100824.94
2023-05-05T08:53:17.478Z,100853.13
2023-05-05T08:55:56.830Z,100855.44
2023-05-05T08:58:25.553Z,100815.59
2023-05-05T09:00:54.029Z,100851.44
2023-05-05T09:03:21.634Z,100849.13
2023-05-05T09:05:48.949Z,100818.56
2023-05-05T09:08:16.311Z,100805.81
2023-05-05T09:10:44.908Z,100837.59
2023-05-05T09:13:11.791Z,100834.25
2023-05-05T09:15:39.259Z,100843.81
2023-05-05T09:18:09.253Z,100840.06
2023-05-05T09:20:37.929Z,100803.16
2023-05-05T09:23:18.883Z,100804.38
2023-05-05T09:25:48.598Z,100803.22
2023-05-05T09:28:17.219Z,100784.28
2023-05-05T09:30:46.979Z,100815.69
2023-05-05T09:33:14.398Z,100818.44
2023-05-05T09:35:55.577Z,100815.44
2023-05-05T09:38:23.880Z,100796.41
2023-05-05T09:40:52.830Z,100825.41
2023-05-05T09:43:22.109Z,100771.75
2023-05-05T09:45:49.434Z,100828.66
2023-05-05T09:48:30.929Z,100797.97
2023-05-05T09:50:58.958Z,100804.94
2023-05-05T09:53:27.203Z,100792.72
2023-05-05T09:55:58.449Z,100819.47
2023-05-05T09:58:27.020Z,100784.91
2023-05-05T10:00:55.874Z,100823.63
2023-05-05T10:03:23.398Z,100831.66
2023-05-05T10:05:52.199Z,100809.47
2023-05-05T10:08:26.674Z,100821.63
2023-05-05T10:10:54.358Z,100832.13
2023-05-05T10:13:22.679Z,100823.88
2023-05-05T10:15:51.656Z,100812.28
2023-05-05T10:18:31.841Z,100826.91
2023-05-05T10:21:00.747Z,100826.47
2023-05-05T10:23:45.904Z,100789.66
2023-05-05T10:26:14.800Z,100821.91
2023-05-05T10:28:50.513Z,100787.84
2023-05-05T10:31:25.651Z,100771.75
2023-05-05T10:33:59.512Z,100771.91
2023-05-05T10:36:28.046Z,100819.31
2023-05-05T10:38:56.962Z,100756.84
2023-05-05T10:41:24.709Z,100766.97
2023-05-05T10:43:53.241Z,100767.47
2023-05-05T10:46:20.006Z,100770.91
2023-05-05T10:48:56.817Z,100803.50
2023-05-05T10:51:38.398Z,100760.19
2023-05-05T10:54:10.645Z,100772.66
2023-05-05T10:56:41.297Z,100786.09
2023-05-05T10:59:32.914Z,100807.91
2023-05-05T11:01:59.655Z,100805.97
2023-05-05T11:04:26.551Z,100784.38
2023-05-05T11:07:10.265Z,100812.63
2023-05-05T11:09:55.162Z,100749.84
2023-05-05T11:12:21.685Z,100811.38
2023-05-05T11:14:48.456Z,100782.59
2023-05-05T11:17:47.006Z,100808.00
2023-05-05T11:20:13.957Z,100797.00
2023-05-05T11:23:19.266Z,100812.84
2023-05-05T11:25:47.198Z,100810.69
2023-05-05T11:28:16.743Z,100807.66
2023-05-05T11:30:58.869Z,100811.38
2023-05-05T11:33:30.340Z,100818.72
2023-05-05T11:36:09.747Z,100816.16
2023-05-05T11:38:36.353Z,100814.75
2023-05-05T11:41:13.162Z,100780.19
2023-05-05T11:43:41.842Z,100784.94
2023-05-05T11:46:16.995Z,100799.56
2023-05-05T11:48:47.388Z,100775.19
2023-05-05T11:51:15.167Z,100785.53
2023-05-05T11:53:49.329Z,100766.38
2023-05-05T11:56:21.897Z,100810.00
2023-05-05T11:58:49.531Z,100802.78
2023-05-05T12:01:16.904Z,100764.28
2023-05-05T12:03:45.674Z,100774.16
2023-05-05T12:06:13.365Z,100799.56
2023-05-05T12:08:41.169Z,100796.25
2023-05-05T12:11:09.997Z,100753.16
2023-05-05T12:13:36.819Z,100751.81
2023-05-05T12:16:10.448Z,100776.06
2023-05-05T12:18:37.550Z,100776.00
2023-05-05T12:21:18.019Z,100766.16
2023-05-05T12:23:45.039Z,100779.22
2023-05-05T12:26:28.876Z,100785.13
2023-05-05T12:28:59.246Z,100791.81
2023-05-05T12:31:39.877Z,100787.69
2023-05-05T12:34:09.861Z,100788.44
2023-05-05T12:36:37.400Z,100794.19
2023-05-05T12:39:08.285Z,100798.66
2023-05-05T12:41:35.033Z,100784.97
2023-05-05T12:44:05.487Z,100781.41
2023-05-05T12:46:48.034Z,100788.75
2023-05-05T12:49:14.926Z,100791.75
2023-05-05T12:51:54.256Z,100788.16
2023-05-05T12:54:21.252Z,100763.81
2023-05-05T12:56:48.256Z,100787.84
2023-05-05T12:59:21.015Z,100783.16
2023-05-05T13:02:00.059Z,100789.91
2023-05-05T13:04:28.151Z,100720.94
2023-05-05T13:07:12.882Z,100737.78
2023-05-05T13:09:40.035Z,100770.66
2023-05-05T13:12:14.090Z,100767.75
2023-05-05T13:14:41.634Z,100756.50
2023-05-05T13:17:08.893Z,100749.06
2023-05-05T13:19:41.875Z,100746.69
2023-05-05T13:22:10.203Z,100730.88
2023-05-05T13:24:49.554Z,100804.09
2023-05-05T13:27:18.081Z,100731.81
2023-05-05T13:29:44.703Z,100772.41
2023-05-05T13:32:11.707Z,100777.09
2023-05-05T13:34:39.346Z,100770.06
2023-05-05T13:37:06.487Z,100765.44
2023-05-05T13:39:33.239Z,100761.44
2023-05-05T13:41:59.901Z,100803.78
2023-05-05T13:44:26.536Z,100787.41
2023-05-05T13:46:53.232Z,100740.47
2023-05-05T13:49:20.491Z,100736.72
2023-05-05T13:51:47.355Z,100750.88
2023-05-05T13:54:14.118Z,100743.59
2023-05-05T13:56:41.090Z,100779.44
2023-05-05T13:59:07.820Z,100808.91
2023-05-05T14:01:34.654Z,100797.13
2023-05-05T14:04:04.499Z,100761.13
2023-05-05T14:06:32.742Z,100763.34
2023-05-05T14:08:59.763Z,100757.78
2023-05-05T14:11:26.458Z,100752.41
2023-05-05T14:13:53.349Z,100777.00
2023-05-05T14:16:20.168Z,100764.69
2023-05-05T14:18:46.919Z,100767.53
2023-05-05T14:21:13.629Z,100778.72
2023-05-05T14:23:40.397Z,100756.50
2023-05-05T14:26:09.194Z,100724.88
2023-05-05T14:28:35.996Z,100754.97
2023-05-05T14:31:02.647Z,100751.09
2023-05-05T14:33:29.349Z,100742.31
2023-05-05T14:35:56.099Z,100764.63
2023-05-05T14:38:22.875Z,100759.44
2023-05-05T14:40:49.616Z,100780.00
2023-05-05T14:43:16.275Z,100732.78
2023-05-05T14:45:44.318Z,100738.94
2023-05-05T14:48:11.288Z,100777.16
2023-05-05T14:50:39.952Z,100731.97
2023-05-05T14:53:06.666Z,100744.34
2023-05-05T14:55:33.371Z,100736.06
2023-05-05T14:58:00.037Z,100756.94
2023-05-05T15:00:27.025Z,100748.03
2023-05-05T15:02:53.864Z,100776.34
2023-05-05T15:05:20.587Z,100773.16
2023-05-05T15:07:47.268Z,100743.88
2023-05-05T15:10:13.985Z,100720.09
2023-05-05T15:12:40.769Z,100760.97
2023-05-05T15:15:08.764Z,100763.53
2023-05-05T15:17:37.629Z,100755.78
2023-05-05T15:20:08.213Z,100714.19
2023-05-05T15:22:36.438Z,100777.34
2023-05-05T15:25:03.309Z,100725.72
2023-05-05T15:27:31.716Z,100696.09
2023-05-05T15:29:58.498Z,100745.78
2023-05-05T15:32:25.330Z,100735.31
2023-05-05T15:34:52.040Z,100737.56
2023-05-05T15:37:18.682Z,100753.63
2023-05-05T15:39:45.425Z,100731.16
2023-05-05T15:42:12.187Z,100734.25
2023-05-05T15:44:38.928Z,100724.22
2023-05-05T15:47:06.965Z,100718.97
2023-05-05T15:49:33.699Z,100755.22
2023-05-05T15:52:00.835Z,100740.50
2023-05-05T15:54:27.566Z,100690.84
2023-05-05T15:56:54.344Z,100684.44
2023-05-05T15:59:21.098Z,100756.63
2023-05-05T16:01:47.932Z,100718.03
2023-05-05T16:04:14.737Z,100727.34
2023-05-05T16:06:41.488Z,100749.22
2023-05-05T16:09:08.276Z,100722.78
2023-05-05T16:11:35.503Z,100731.38
2023-05-05T16:14:02.330Z,100759.66
2023-05-05T16:16:29.214Z,100712.56
2023-05-05T16:18:55.939Z,100724.47
2023-05-05T16:21:22.660Z,100731.66
2023-05-05T16:23:49.359Z,100707.28
2023-05-05T16:26:16.016Z,100730.06
2023-05-05T16:28:42.923Z,100708.03
2023-05-05T16:31:11.046Z,100739.09
2023-05-05T16:33:43.533Z,100735.09
2023-05-05T16:36:14.610Z,100726.19
2023-05-05T16:38:41.672Z,100763.66
2023-05-05T16:41:08.368Z,100679.47
2023-05-05T16:43:37.274Z,100728.28
2023-05-05T16:46:04.319Z,100756.69
2023-05-05T16:48:31.284Z,100701.22
2023-05-05T16:50:58.191Z,100702.56
2023-05-05T16:53:25.195Z,100716.50
2023-05-05T16:55:52.993Z,100746.03
2023-05-05T16:58:20.996Z,100736.22
2023-05-05T17:00:49.167Z,100700.91
2023-05-05T17:03:17.159Z,100703.72
2023-05-05T17:05:45.501Z,100652.81
2023-05-05T17:08:14.738Z,100741.34
2023-05-05T17:10:42.475Z,100720.25
2023-05-05T17:13:14.110Z,100738.56
2023-05-05T17:15:41.614Z,100733.69
2023-05-05T17:18:08.860Z,100696.94
2023-05-05T17:20:36.486Z,100712.41
2023-05-05T17:23:03.380Z,100704.22
2023-05-05T17:25:30.063Z,100703.31
2023-05-05T17:27:57.630Z,100687.28
2023-05-05T17:30:24.488Z,100683.56
2023-05-05T17:32:51.212Z,100716.00
2023-05-05T17:35:18.045Z,100679.75
2023-05-05T17:37:44.697Z,100696.78
2023-05-05T17:40:11.564Z,100750.88
2023-05-05T17:42:39.084Z,100707.19
2023-05-05T17:45:06.630Z,100718.66
2023-05-05T17:47:33.813Z,100718.88
2023-05-05T17:50:00.853Z,100692.81
2023-05-05T17:52:27.605Z,100695.88
2023-05-05T17:54:54.322Z,100690.56
2023-05-05T17:57:21.134Z,100697.19
2023-05-05T17:59:49.692Z,100752.16
2023-05-05T18:02:17.092Z,100752.84
2023-05-05T18:04:43.979Z,100742.19
2023-05-05T18:07:12.307Z,100714.88
2023-05-05T18:09:39.233Z,100704.91
2023-05-05T18:12:07.017Z,100710.69
2023-05-05T18:14:34.251Z,100715.81
2023-05-05T18:17:01.387Z,100721.06
2023-05-05T18:19:28.202Z,100702.75
2023-05-05T18:21:54.885Z,100730.88
2023-05-05T18:24:21.622Z,100675.88
2023-05-05T18:26:50.727Z,100701.69
2023-05-05T18:29:24.397Z,100693.25
2023-05-05T18:31:53.224Z,100704.44
2023-05-05T18:34:21.120Z,100752.16
2023-05-05T18:36:48.377Z,100743.06
2023-05-05T18:39:15.317Z,100745.28
2023-05-05T18:41:42.047Z,100713.19
2023-05-05T18:44:08.732Z,100741.66
2023-05-05T18:46:35.512Z,100736.31
2023-05-05T18:49:02.495Z,100751.41
2023-05-05T18:51:29.211Z,100708.31
2023-05-05T18:53:55.957Z,100726.72
2023-05-05T18:56:22.710Z,100741.16
2023-05-05T18:58:49.485Z,100753.06
2023-05-05T19:01:16.627Z,100768.75
2023-05-05T19:03:47.858Z,100751.75
2023-05-05T19:06:15.008Z,100757.72
2023-05-05T19:08:42.808Z,100779.69
2023-05-05T19:11:09.833Z,100721.16
2023-05-05T19:16:03.314Z,100740.28
2023-05-05T19:18:30.044Z,100780.25
2023-05-05T19:20:56.685Z,100749.53
2023-05-05T19:23:23.529Z,100750.88
2023-05-05T19:25:53.607Z,100781.66
2023-05-05T19:28:20.291Z,100765.31
2023-05-05T19:30:48.914Z,100757.44
2023-05-05T19:33:16.488Z,100774.63
2023-05-05T19:35:44.084Z,100767.59
2023-05-05T19:38:10.958Z,100762.06
2023-05-05T19:40:39.087Z,100739.31
2023-05-05T19:43:06.034Z,100772.97
2023-05-05T19:45:33.883Z,100753.53
2023-05-05T19:48:03.753Z,100758.72
2023-05-05T19:50:31.646Z,100744.75
2023-05-05T19:52:58.495Z,100752.59
2023-05-05T19:55:25.716Z,100759.19
2023-05-05T19:57:52.497Z,100721.50
2023-05-05T20:00:19.903Z,100697.53
2023-05-05T20:02:48.655Z,100751.41
2023-05-05T20:05:17.329Z,100775.13
2023-05-05T20:07:46.414Z,100715.47
2023-05-05T20:10:13.569Z,100717.38
2023-05-05T20:12:47.601Z,100779.38
2023-05-05T20:15:19.435Z,100779.56
2023-05-05T20:17:47.528Z,100729.84
2023-05-05T20:20:21.979Z,100759.94
2023-05-05T20:22:49.399Z,100750.88
2023-05-05T20:25:16.465Z,100732.09
2023-05-05T20:27:43.842Z,100756.31
2023-05-05T20:30:12.253Z,100708.66
2023-05-05T20:32:39.158Z,100751.25
2023-05-05T20:35:06.449Z,100769.78
2023-05-05T20:37:33.243Z,100765.56
2023-05-05T20:40:00.058Z,100730.59
2023-05-05T20:42:27.921Z,100712.97
2023-05-05T20:44:54.779Z,100731.88
2023-05-05T20:47:21.466Z,100733.19
2023-05-05T20:49:48.211Z,100692.16
2023-05-05T20:52:14.940Z,100721.59
2023-05-05T20:54:41.738Z,100726.00
2023-05-05T20:57:08.489Z,100734.22
2023-05-05T20:59:35.213Z,100715.41
2023-05-05T21:02:01.970Z,100722.78
2023-05-05T21:04:28.755Z,100692.03
2023-05-05T21:06:57.459Z,100710.00
2023-05-05T21:09:24.326Z,100704.78
2023-05-05T21:11:51.109Z,100688.75
2023-05-05T21:14:17.928Z,100711.25
2023-05-05T21:16:44.690Z,100736.38
2023-05-05T21:19:11.533Z,100709.00
2023-05-05T21:21:38.441Z,100722.66
2023-05-05T21:24:07.659Z,100696.03
2023-05-05T21:26:34.661Z,100708.03
2023-05-05T21:29:01.568Z,100709.47
2023-05-05T21:31:28.352Z,100697.38
2023-05-05T21:33:55.078Z,100706.91
2023-05-05T21:36:22.134Z,100734.81
2023-05-05T21:38:49.594Z,100725.38
2023-05-05T21:41:16.963Z,100721.94
2023-05-05T21:43:43.836Z,100683.34
2023-05-05T21:46:10.664Z,100690.47
2023-05-05T21:48:39.162Z,100742.78
2023-05-05T21:51:06.937Z,100733.22
2023-05-05T21:53:33.774Z,100722.97
2023-05-05T21:56:01.134Z,100741.72
2023-05-05T21:58:27.904Z,100699.66
2023-05-05T22:00:57.932Z,100670.69
2023-05-05T22:03:24.795Z,100697.94
2023-05-05T22:05:52.026Z,100688.06
2023-05-05T22:08:19.705Z,100700.31
2023-05-05T22:10:46.872Z,100705.63
2023-05-05T22:13:14.656Z,100712.66
2023-05-05T22:15:46.680Z,100729.59
2023-05-05T22:18:14.248Z,100740.59
2023-05-05T22:20:41.026Z,100699.34
2023-05-05T22:23:07.706Z,100659.91
2023-05-05T22:25:34.442Z,100649.66
2023-05-05T22:28:01.208Z,100677.06
2023-05-05T22:30:28.028Z,100717.84
2023-05-05T22:32:55.278Z,100713.69
2023-05-05T22:35:22.092Z,100650.69
2023-05-05T22:37:48.822Z,100708.63
2023-05-05T22:40:15.703Z,100718.22
2023-05-05T22:42:42.453Z,100705.16
2023-05-05T22:45:09.728Z,100681.31
2023-05-05T22:47:36.941Z,100692.47
2023-05-05T22:50:03.752Z,100647.44
2023-05-05T22:52:33.271Z,100708.38
2023-05-05T22:54:59.982Z,100680.22
2023-05-05T22:57:26.606Z,100662.22
2023-05-05T22:59:53.352Z,100696.38
2023-05-05T23:02:27.067Z,100674.41
2023-05-05T23:04:53.835Z,100687.22
2023-05-05T23:07:20.738Z,100701.00
2023-05-05T23:09:48.102Z,100671.09
2023-05-05T23:12:16.960Z,100712.59
2023-05-05T23:14:43.980Z,100715.88
2023-05-05T23:17:10.809Z,100680.72
2023-05-05T23:19:37.813Z,100684.00
2023-05-05T23:22:05.014Z,100707.03
2023-05-05T23:24:31.782Z,100671.31
2023-05-05T23:26:59.778Z,100683.94
2023-05-05T23:29:26.629Z,100714.53
2023-05-05T23:31:53.422Z,100721.69
2023-05-05T23:34:20.165Z,100686.50
2023-05-05T23:36:46.857Z,100689.84
2023-05-05T23:39:13.611Z,100718.22
2023-05-05T23:41:40.268Z,100630.97
2023-05-05T23:44:07.212Z,100612.44
2023-05-05T23:46:34.074Z,100725.97
2023-05-05T23:49:00.833Z,100698.50
2023-05-05T23:51:27.489Z,100660.16
2023-05-05T23:53:56.681Z,100702.56
2023-05-05T23:56:24.514Z,100673.63
2023-05-05T23:58:52.536Z,100709.56
